sensor_id;sensor_type;location;lat;lon;timestamp;P1;durP1;ratioP1;P2;durP2;ratioP2
42168;SDS011;27838;43.858;25.974;2022-09-09T00:00:16;6.20;;;2.85;;
42168;SDS011;27838;43.858;25.974;2022-09-09T00:03:07;6.15;;;2.90;;
42168;SDS011;27838;43.858;25.974;2022-09-09T00:08:19;3.20;;;2.90;;
42168;SDS011;27838;43.858;25.974;2022-09-09T00:10:54;4.72;;;2.90;;
42168;SDS011;27838;43.858;25.974;2022-09-09T00:13:31;6.32;;;2.97;;
42168;SDS011;27838;43.858;25.974;2022-09-09T00:16:00;3.50;;;2.70;;
42168;SDS011;27838;43.858;25.974;2022-09-09T00:21:21;5.47;;;3.08;;
42168;SDS011;27838;43.858;25.974;2022-09-09T00:24:00;5.00;;;2.70;;
42168;SDS011;27838;43.858;25.974;2022-09-09T00:26:42;9.25;;;2.90;;
42168;SDS011;27838;43.858;25.974;2022-09-09T00:29:32;4.55;;;3.00;;
42168;SDS011;27838;43.858;25.974;2022-09-09T00:32:13;6.57;;;2.72;;
42168;SDS011;27838;43.858;25.974;2022-09-09T00:34:49;10.27;;;3.50;;
42168;SDS011;27838;43.858;25.974;2022-09-09T00:37:20;5.85;;;2.75;;
42168;SDS011;27838;43.858;25.974;2022-09-09T00:39:51;5.53;;;2.60;;
42168;SDS011;27838;43.858;25.974;2022-09-09T00:42:24;5.75;;;2.83;;
42168;SDS011;27838;43.858;25.974;2022-09-09T00:45:41;7.18;;;2.42;;
42168;SDS011;27838;43.858;25.974;2022-09-09T00:48:14;5.28;;;2.80;;
42168;SDS011;27838;43.858;25.974;2022-09-09T00:50:53;3.92;;;2.85;;
42168;SDS011;27838;43.858;25.974;2022-09-09T00:53:27;5.15;;;3.20;;
42168;SDS011;27838;43.858;25.974;2022-09-09T00:56:30;3.85;;;2.67;;
42168;SDS011;27838;43.858;25.974;2022-09-09T01:01:36;3.35;;;2.30;;
42168;SDS011;27838;43.858;25.974;2022-09-09T01:04:04;4.60;;;2.75;;
42168;SDS011;27838;43.858;25.974;2022-09-09T01:06:41;4.50;;;2.78;;
42168;SDS011;27838;43.858;25.974;2022-09-09T01:17:07;6.57;;;3.45;;
42168;SDS011;27838;43.858;25.974;2022-09-09T01:28:10;3.78;;;2.58;;
42168;SDS011;27838;43.858;25.974;2022-09-09T01:30:45;6.28;;;2.45;;
42168;SDS011;27838;43.858;25.974;2022-09-09T01:33:16;4.70;;;2.60;;
42168;SDS011;27838;43.858;25.974;2022-09-09T01:35:48;3.80;;;2.70;;
42168;SDS011;27838;43.858;25.974;2022-09-09T01:38:20;6.55;;;2.78;;
42168;SDS011;27838;43.858;25.974;2022-09-09T01:40:48;4.03;;;2.35;;
42168;SDS011;27838;43.858;25.974;2022-09-09T01:43:17;5.85;;;2.75;;
42168;SDS011;27838;43.858;25.974;2022-09-09T01:45:45;6.25;;;2.78;;
42168;SDS011;27838;43.858;25.974;2022-09-09T01:48:15;7.18;;;2.83;;
42168;SDS011;27838;43.858;25.974;2022-09-09T01:50:44;3.42;;;2.50;;
42168;SDS011;27838;43.858;25.974;2022-09-09T01:53:10;6.13;;;2.60;;
42168;SDS011;27838;43.858;25.974;2022-09-09T01:55:39;3.28;;;2.75;;
42168;SDS011;27838;43.858;25.974;2022-09-09T02:04:18;4.18;;;2.75;;
42168;SDS011;27838;43.858;25.974;2022-09-09T02:06:49;5.30;;;2.50;;
42168;SDS011;27838;43.858;25.974;2022-09-09T02:09:22;5.25;;;3.00;;
42168;SDS011;27838;43.858;25.974;2022-09-09T02:11:52;4.97;;;2.70;;
42168;SDS011;27838;43.858;25.974;2022-09-09T02:17:09;3.95;;;2.53;;
42168;SDS011;27838;43.858;25.974;2022-09-09T02:19:45;3.92;;;2.53;;
42168;SDS011;27838;43.858;25.974;2022-09-09T02:22:16;10.52;;;3.13;;
42168;SDS011;27838;43.858;25.974;2022-09-09T02:24:45;9.77;;;2.83;;
42168;SDS011;27838;43.858;25.974;2022-09-09T02:27:13;7.10;;;5.32;;
42168;SDS011;27838;43.858;25.974;2022-09-09T02:29:42;5.65;;;2.80;;
42168;SDS011;27838;43.858;25.974;2022-09-09T02:32:13;6.93;;;2.55;;
42168;SDS011;27838;43.858;25.974;2022-09-09T02:37:12;4.43;;;2.83;;
42168;SDS011;27838;43.858;25.974;2022-09-09T02:39:44;3.88;;;2.88;;
42168;SDS011;27838;43.858;25.974;2022-09-09T02:42:11;9.95;;;2.88;;
42168;SDS011;27838;43.858;25.974;2022-09-09T02:44:39;3.10;;;2.80;;
42168;SDS011;27838;43.858;25.974;2022-09-09T02:47:11;7.55;;;2.85;;
42168;SDS011;27838;43.858;25.974;2022-09-09T02:55:29;10.77;;;3.67;;
42168;SDS011;27838;43.858;25.974;2022-09-09T02:58:08;6.47;;;3.17;;
42168;SDS011;27838;43.858;25.974;2022-09-09T03:00:37;21.38;;;3.50;;
42168;SDS011;27838;43.858;25.974;2022-09-09T03:03:06;26.88;;;3.92;;
42168;SDS011;27838;43.858;25.974;2022-09-09T03:05:34;13.23;;;3.05;;
42168;SDS011;27838;43.858;25.974;2022-09-09T03:08:01;5.82;;;2.50;;
42168;SDS011;27838;43.858;25.974;2022-09-09T03:10:30;4.75;;;2.50;;
42168;SDS011;27838;43.858;25.974;2022-09-09T03:12:57;8.80;;;3.42;;
42168;SDS011;27838;43.858;25.974;2022-09-09T03:15:25;4.93;;;2.70;;
42168;SDS011;27838;43.858;25.974;2022-09-09T03:17:54;5.72;;;2.88;;
42168;SDS011;27838;43.858;25.974;2022-09-09T03:20:21;3.63;;;2.78;;
42168;SDS011;27838;43.858;25.974;2022-09-09T03:22:50;5.43;;;2.70;;
42168;SDS011;27838;43.858;25.974;2022-09-09T03:25:18;4.75;;;2.70;;
42168;SDS011;27838;43.858;25.974;2022-09-09T03:27:45;5.80;;;2.80;;
42168;SDS011;27838;43.858;25.974;2022-09-09T03:30:11;8.25;;;2.63;;
42168;SDS011;27838;43.858;25.974;2022-09-09T03:32:38;4.65;;;2.80;;
42168;SDS011;27838;43.858;25.974;2022-09-09T03:35:05;11.57;;;2.90;;
42168;SDS011;27838;43.858;25.974;2022-09-09T03:37:32;5.82;;;2.80;;
42168;SDS011;27838;43.858;25.974;2022-09-09T03:39:58;6.80;;;2.97;;
42168;SDS011;27838;43.858;25.974;2022-09-09T03:42:25;5.32;;;3.25;;
42168;SDS011;27838;43.858;25.974;2022-09-09T03:44:52;31.70;;;4.90;;
42168;SDS011;27838;43.858;25.974;2022-09-09T03:47:20;22.95;;;4.35;;
42168;SDS011;27838;43.858;25.974;2022-09-09T03:49:47;10.45;;;3.72;;
42168;SDS011;27838;43.858;25.974;2022-09-09T03:52:14;6.00;;;3.13;;
42168;SDS011;27838;43.858;25.974;2022-09-09T03:54:41;7.80;;;3.10;;
42168;SDS011;27838;43.858;25.974;2022-09-09T03:57:08;19.92;;;3.47;;
42168;SDS011;27838;43.858;25.974;2022-09-09T03:59:36;8.52;;;2.95;;
42168;SDS011;27838;43.858;25.974;2022-09-09T04:02:03;9.15;;;3.10;;
42168;SDS011;27838;43.858;25.974;2022-09-09T04:04:30;11.45;;;3.72;;
42168;SDS011;27838;43.858;25.974;2022-09-09T04:06:57;7.43;;;3.30;;
42168;SDS011;27838;43.858;25.974;2022-09-09T04:09:23;8.63;;;3.88;;
42168;SDS011;27838;43.858;25.974;2022-09-09T04:11:50;22.10;;;5.93;;
42168;SDS011;27838;43.858;25.974;2022-09-09T04:14:17;7.93;;;3.05;;
42168;SDS011;27838;43.858;25.974;2022-09-09T04:16:44;7.05;;;3.20;;
42168;SDS011;27838;43.858;25.974;2022-09-09T04:19:11;9.85;;;3.42;;
42168;SDS011;27838;43.858;25.974;2022-09-09T04:21:40;7.28;;;3.17;;
42168;SDS011;27838;43.858;25.974;2022-09-09T04:24:07;7.60;;;2.72;;
42168;SDS011;27838;43.858;25.974;2022-09-09T04:26:35;5.80;;;3.25;;
42168;SDS011;27838;43.858;25.974;2022-09-09T04:29:03;12.55;;;3.58;;
42168;SDS011;27838;43.858;25.974;2022-09-09T04:31:32;4.95;;;2.40;;
42168;SDS011;27838;43.858;25.974;2022-09-09T04:33:58;9.82;;;3.05;;
42168;SDS011;27838;43.858;25.974;2022-09-09T04:36:27;8.20;;;3.22;;
42168;SDS011;27838;43.858;25.974;2022-09-09T04:38:54;10.95;;;3.45;;
42168;SDS011;27838;43.858;25.974;2022-09-09T04:41:20;11.05;;;3.08;;
42168;SDS011;27838;43.858;25.974;2022-09-09T04:43:47;4.93;;;2.67;;
42168;SDS011;27838;43.858;25.974;2022-09-09T04:46:14;11.07;;;2.95;;
42168;SDS011;27838;43.858;25.974;2022-09-09T04:48:42;11.60;;;3.33;;
42168;SDS011;27838;43.858;25.974;2022-09-09T04:51:09;7.10;;;3.42;;
42168;SDS011;27838;43.858;25.974;2022-09-09T04:53:38;23.20;;;5.18;;
42168;SDS011;27838;43.858;25.974;2022-09-09T04:58:32;4.43;;;2.40;;
42168;SDS011;27838;43.858;25.974;2022-09-09T05:01:05;8.95;;;2.45;;
42168;SDS011;27838;43.858;25.974;2022-09-09T05:03:33;15.00;;;3.70;;
42168;SDS011;27838;43.858;25.974;2022-09-09T05:06:10;8.68;;;3.30;;
42168;SDS011;27838;43.858;25.974;2022-09-09T05:08:38;8.98;;;3.10;;
42168;SDS011;27838;43.858;25.974;2022-09-09T05:11:13;7.15;;;2.45;;
42168;SDS011;27838;43.858;25.974;2022-09-09T05:13:44;12.85;;;3.45;;
42168;SDS011;27838;43.858;25.974;2022-09-09T05:16:11;15.43;;;2.72;;
42168;SDS011;27838;43.858;25.974;2022-09-09T05:18:39;10.80;;;3.47;;
42168;SDS011;27838;43.858;25.974;2022-09-09T05:21:10;8.63;;;2.88;;
42168;SDS011;27838;43.858;25.974;2022-09-09T05:23:38;13.57;;;3.30;;
42168;SDS011;27838;43.858;25.974;2022-09-09T05:26:05;3.67;;;2.75;;
42168;SDS011;27838;43.858;25.974;2022-09-09T05:28:33;7.32;;;2.85;;
42168;SDS011;27838;43.858;25.974;2022-09-09T05:31:03;8.27;;;2.78;;
42168;SDS011;27838;43.858;25.974;2022-09-09T05:33:33;4.55;;;2.53;;
42168;SDS011;27838;43.858;25.974;2022-09-09T05:36:02;10.85;;;3.90;;
42168;SDS011;27838;43.858;25.974;2022-09-09T05:38:33;11.77;;;3.70;;
42168;SDS011;27838;43.858;25.974;2022-09-09T05:41:01;20.27;;;11.50;;
42168;SDS011;27838;43.858;25.974;2022-09-09T05:43:28;8.65;;;5.90;;
42168;SDS011;27838;43.858;25.974;2022-09-09T05:46:01;16.70;;;9.45;;
42168;SDS011;27838;43.858;25.974;2022-09-09T05:48:30;45.83;;;34.90;;
42168;SDS011;27838;43.858;25.974;2022-09-09T05:51:02;19.75;;;12.95;;
42168;SDS011;27838;43.858;25.974;2022-09-09T05:53:30;20.73;;;11.02;;
42168;SDS011;27838;43.858;25.974;2022-09-09T05:56:05;10.82;;;4.55;;
42168;SDS011;27838;43.858;25.974;2022-09-09T05:58:35;9.05;;;6.00;;
42168;SDS011;27838;43.858;25.974;2022-09-09T06:03:37;6.20;;;4.30;;
42168;SDS011;27838;43.858;25.974;2022-09-09T06:06:06;6.97;;;4.20;;
42168;SDS011;27838;43.858;25.974;2022-09-09T06:08:37;6.82;;;3.28;;
42168;SDS011;27838;43.858;25.974;2022-09-09T06:11:06;10.50;;;3.45;;
42168;SDS011;27838;43.858;25.974;2022-09-09T06:13:35;8.93;;;3.63;;
42168;SDS011;27838;43.858;25.974;2022-09-09T06:16:04;7.95;;;3.50;;
42168;SDS011;27838;43.858;25.974;2022-09-09T06:18:32;7.75;;;3.65;;
42168;SDS011;27838;43.858;25.974;2022-09-09T06:20:59;7.70;;;3.83;;
42168;SDS011;27838;43.858;25.974;2022-09-09T06:23:29;10.17;;;5.97;;
42168;SDS011;27838;43.858;25.974;2022-09-09T06:26:09;10.85;;;7.32;;
42168;SDS011;27838;43.858;25.974;2022-09-09T06:28:57;30.35;;;24.23;;
42168;SDS011;27838;43.858;25.974;2022-09-09T06:31:25;24.45;;;17.45;;
42168;SDS011;27838;43.858;25.974;2022-09-09T06:36:23;8.65;;;6.10;;
42168;SDS011;27838;43.858;25.974;2022-09-09T06:38:51;8.40;;;6.43;;
42168;SDS011;27838;43.858;25.974;2022-09-09T06:41:19;11.77;;;5.05;;
42168;SDS011;27838;43.858;25.974;2022-09-09T06:43:48;15.40;;;4.37;;
42168;SDS011;27838;43.858;25.974;2022-09-09T06:46:15;44.97;;;9.27;;
42168;SDS011;27838;43.858;25.974;2022-09-09T06:48:43;19.67;;;7.65;;
42168;SDS011;27838;43.858;25.974;2022-09-09T06:51:12;14.02;;;5.05;;
42168;SDS011;27838;43.858;25.974;2022-09-09T06:53:41;11.65;;;4.25;;
42168;SDS011;27838;43.858;25.974;2022-09-09T06:58:44;6.63;;;3.40;;
42168;SDS011;27838;43.858;25.974;2022-09-09T07:01:12;10.38;;;3.33;;
42168;SDS011;27838;43.858;25.974;2022-09-09T07:03:41;4.93;;;3.17;;
42168;SDS011;27838;43.858;25.974;2022-09-09T07:06:15;7.17;;;4.20;;
42168;SDS011;27838;43.858;25.974;2022-09-09T07:08:43;4.90;;;3.35;;
42168;SDS011;27838;43.858;25.974;2022-09-09T07:11:14;6.63;;;3.15;;
42168;SDS011;27838;43.858;25.974;2022-09-09T07:13:41;4.85;;;3.08;;
42168;SDS011;27838;43.858;25.974;2022-09-09T07:16:11;3.90;;;2.80;;
42168;SDS011;27838;43.858;25.974;2022-09-09T07:18:40;7.55;;;2.80;;
42168;SDS011;27838;43.858;25.974;2022-09-09T07:21:09;12.02;;;8.90;;
42168;SDS011;27838;43.858;25.974;2022-09-09T07:23:38;8.02;;;3.60;;
42168;SDS011;27838;43.858;25.974;2022-09-09T07:26:12;21.52;;;17.75;;
42168;SDS011;27838;43.858;25.974;2022-09-09T07:28:44;9.57;;;7.40;;
42168;SDS011;27838;43.858;25.974;2022-09-09T07:31:18;11.60;;;7.60;;
42168;SDS011;27838;43.858;25.974;2022-09-09T07:33:59;8.00;;;5.78;;
42168;SDS011;27838;43.858;25.974;2022-09-09T07:36:28;6.63;;;3.45;;
42168;SDS011;27838;43.858;25.974;2022-09-09T07:38:57;8.23;;;3.83;;
42168;SDS011;27838;43.858;25.974;2022-09-09T07:41:29;10.43;;;4.00;;
42168;SDS011;27838;43.858;25.974;2022-09-09T07:43:59;14.98;;;4.40;;
42168;SDS011;27838;43.858;25.974;2022-09-09T07:46:29;10.57;;;5.45;;
42168;SDS011;27838;43.858;25.974;2022-09-09T07:48:56;12.32;;;5.05;;
42168;SDS011;27838;43.858;25.974;2022-09-09T07:51:30;12.85;;;4.20;;
42168;SDS011;27838;43.858;25.974;2022-09-09T07:54:00;16.27;;;4.55;;
42168;SDS011;27838;43.858;25.974;2022-09-09T07:56:29;8.82;;;3.95;;
42168;SDS011;27838;43.858;25.974;2022-09-09T07:58:57;29.35;;;7.25;;
42168;SDS011;27838;43.858;25.974;2022-09-09T08:01:26;40.42;;;5.63;;
42168;SDS011;27838;43.858;25.974;2022-09-09T08:04:00;23.10;;;6.32;;
42168;SDS011;27838;43.858;25.974;2022-09-09T08:06:29;13.80;;;4.80;;
42168;SDS011;27838;43.858;25.974;2022-09-09T08:08:59;11.63;;;5.15;;
42168;SDS011;27838;43.858;25.974;2022-09-09T08:11:27;9.63;;;5.68;;
42168;SDS011;27838;43.858;25.974;2022-09-09T08:13:55;16.73;;;10.88;;
42168;SDS011;27838;43.858;25.974;2022-09-09T08:16:23;9.73;;;7.50;;
42168;SDS011;27838;43.858;25.974;2022-09-09T08:18:52;12.02;;;4.20;;
42168;SDS011;27838;43.858;25.974;2022-09-09T08:21:24;11.40;;;4.55;;
42168;SDS011;27838;43.858;25.974;2022-09-09T08:23:53;10.15;;;4.45;;
42168;SDS011;27838;43.858;25.974;2022-09-09T08:26:21;10.13;;;5.57;;
42168;SDS011;27838;43.858;25.974;2022-09-09T08:28:54;13.15;;;3.83;;
42168;SDS011;27838;43.858;25.974;2022-09-09T08:31:23;20.17;;;8.05;;
42168;SDS011;27838;43.858;25.974;2022-09-09T08:33:58;14.43;;;4.18;;
42168;SDS011;27838;43.858;25.974;2022-09-09T08:36:27;12.43;;;4.25;;
42168;SDS011;27838;43.858;25.974;2022-09-09T08:38:55;18.90;;;5.70;;
42168;SDS011;27838;43.858;25.974;2022-09-09T08:52:54;24.90;;;4.30;;
42168;SDS011;27838;43.858;25.974;2022-09-09T08:58:15;36.33;;;5.22;;
42168;SDS011;27838;43.858;25.974;2022-09-09T09:03:47;19.60;;;4.90;;
42168;SDS011;27838;43.858;25.974;2022-09-09T09:12:14;16.45;;;4.47;;
42168;SDS011;27838;43.858;25.974;2022-09-09T09:14:26;15.02;;;4.28;;
42168;SDS011;27838;43.858;25.974;2022-09-09T09:17:03;18.48;;;5.05;;
42168;SDS011;27838;43.858;25.974;2022-09-09T09:19:32;15.93;;;5.40;;
42168;SDS011;27838;43.858;25.974;2022-09-09T09:24:50;31.95;;;5.50;;
42168;SDS011;27838;43.858;25.974;2022-09-09T09:29:59;14.18;;;3.80;;
42168;SDS011;27838;43.858;25.974;2022-09-09T09:32:33;10.32;;;3.75;;
42168;SDS011;27838;43.858;25.974;2022-09-09T09:35:02;30.33;;;4.47;;
42168;SDS011;27838;43.858;25.974;2022-09-09T09:37:35;23.55;;;5.38;;
42168;SDS011;27838;43.858;25.974;2022-09-09T09:40:12;19.83;;;5.00;;
42168;SDS011;27838;43.858;25.974;2022-09-09T09:42:53;11.05;;;4.25;;
42168;SDS011;27838;43.858;25.974;2022-09-09T09:45:26;8.68;;;4.65;;
42168;SDS011;27838;43.858;25.974;2022-09-09T09:50:39;14.07;;;5.88;;
42168;SDS011;27838;43.858;25.974;2022-09-09T09:55:57;15.27;;;3.70;;
42168;SDS011;27838;43.858;25.974;2022-09-09T09:58:31;28.95;;;5.78;;
42168;SDS011;27838;43.858;25.974;2022-09-09T10:01:04;19.35;;;4.07;;
42168;SDS011;27838;43.858;25.974;2022-09-09T10:03:32;17.10;;;4.18;;
42168;SDS011;27838;43.858;25.974;2022-09-09T10:06:05;16.55;;;4.93;;
42168;SDS011;27838;43.858;25.974;2022-09-09T10:08:33;47.63;;;7.03;;
42168;SDS011;27838;43.858;25.974;2022-09-09T10:11:23;61.67;;;7.72;;
42168;SDS011;27838;43.858;25.974;2022-09-09T10:14:03;40.00;;;5.40;;
42168;SDS011;27838;43.858;25.974;2022-09-09T10:19:04;28.52;;;4.78;;
42168;SDS011;27838;43.858;25.974;2022-09-09T10:30:32;11.20;;;3.88;;
42168;SDS011;27838;43.858;25.974;2022-09-09T10:36:22;52.47;;;6.78;;
42168;SDS011;27838;43.858;25.974;2022-09-09T10:42:05;26.73;;;5.25;;
42168;SDS011;27838;43.858;25.974;2022-09-09T10:44:47;12.80;;;4.03;;
42168;SDS011;27838;43.858;25.974;2022-09-09T10:47:55;12.70;;;4.40;;
42168;SDS011;27838;43.858;25.974;2022-09-09T10:50:42;9.13;;;3.92;;
42168;SDS011;27838;43.858;25.974;2022-09-09T10:56:17;21.38;;;5.03;;
42168;SDS011;27838;43.858;25.974;2022-09-09T10:58:51;5.68;;;3.38;;
42168;SDS011;27838;43.858;25.974;2022-09-09T11:01:22;5.30;;;3.47;;
42168;SDS011;27838;43.858;25.974;2022-09-09T11:04:08;6.93;;;3.60;;
42168;SDS011;27838;43.858;25.974;2022-09-09T11:06:39;9.60;;;4.10;;
42168;SDS011;27838;43.858;25.974;2022-09-09T11:09:15;20.65;;;6.03;;
42168;SDS011;27838;43.858;25.974;2022-09-09T11:11:55;10.55;;;3.95;;
42168;SDS011;27838;43.858;25.974;2022-09-09T11:14:31;21.80;;;6.63;;
42168;SDS011;27838;43.858;25.974;2022-09-09T11:17:12;14.13;;;5.55;;
42168;SDS011;27838;43.858;25.974;2022-09-09T11:19:44;15.05;;;3.80;;
42168;SDS011;27838;43.858;25.974;2022-09-09T11:22:15;11.23;;;3.50;;
42168;SDS011;27838;43.858;25.974;2022-09-09T11:24:47;14.65;;;3.78;;
42168;SDS011;27838;43.858;25.974;2022-09-09T11:33:02;29.58;;;4.05;;
42168;SDS011;27838;43.858;25.974;2022-09-09T11:35:53;13.35;;;3.92;;
42168;SDS011;27838;43.858;25.974;2022-09-09T11:38:37;42.10;;;5.93;;
42168;SDS011;27838;43.858;25.974;2022-09-09T11:41:13;13.38;;;3.72;;
42168;SDS011;27838;43.858;25.974;2022-09-09T11:43:43;30.08;;;4.20;;
42168;SDS011;27838;43.858;25.974;2022-09-09T11:46:15;34.75;;;5.05;;
42168;SDS011;27838;43.858;25.974;2022-09-09T11:48:44;35.80;;;4.85;;
42168;SDS011;27838;43.858;25.974;2022-09-09T11:51:33;27.83;;;4.30;;
42168;SDS011;27838;43.858;25.974;2022-09-09T11:56:54;46.45;;;7.85;;
42168;SDS011;27838;43.858;25.974;2022-09-09T11:59:28;40.08;;;5.80;;
42168;SDS011;27838;43.858;25.974;2022-09-09T12:01:58;15.88;;;4.47;;
42168;SDS011;27838;43.858;25.974;2022-09-09T12:04:37;32.95;;;5.00;;
42168;SDS011;27838;43.858;25.974;2022-09-09T12:09:46;16.30;;;3.75;;
42168;SDS011;27838;43.858;25.974;2022-09-09T12:12:23;16.38;;;5.00;;
42168;SDS011;27838;43.858;25.974;2022-09-09T12:14:56;63.72;;;8.18;;
42168;SDS011;27838;43.858;25.974;2022-09-09T12:17:26;30.13;;;4.70;;
42168;SDS011;27838;43.858;25.974;2022-09-09T12:20:04;38.90;;;5.80;;
42168;SDS011;27838;43.858;25.974;2022-09-09T12:33:53;38.95;;;7.05;;
42168;SDS011;27838;43.858;25.974;2022-09-09T12:36:27;49.30;;;7.15;;
42168;SDS011;27838;43.858;25.974;2022-09-09T12:38:57;37.17;;;4.68;;
42168;SDS011;27838;43.858;25.974;2022-09-09T12:41:35;26.58;;;5.60;;
42168;SDS011;27838;43.858;25.974;2022-09-09T12:44:09;17.40;;;4.05;;
42168;SDS011;27838;43.858;25.974;2022-09-09T12:46:36;35.15;;;4.75;;
42168;SDS011;27838;43.858;25.974;2022-09-09T12:52:22;15.55;;;4.68;;
42168;SDS011;27838;43.858;25.974;2022-09-09T12:54:50;6.95;;;5.43;;
42168;SDS011;27838;43.858;25.974;2022-09-09T12:57:18;9.45;;;4.40;;
42168;SDS011;27838;43.858;25.974;2022-09-09T13:02:20;29.77;;;6.53;;
42168;SDS011;27838;43.858;25.974;2022-09-09T13:04:48;99.60;;;9.18;;
42168;SDS011;27838;43.858;25.974;2022-09-09T13:07:17;75.03;;;8.00;;
42168;SDS011;27838;43.858;25.974;2022-09-09T13:09:45;36.35;;;5.55;;
42168;SDS011;27838;43.858;25.974;2022-09-09T13:12:17;13.48;;;4.00;;
42168;SDS011;27838;43.858;25.974;2022-09-09T13:14:46;28.73;;;4.60;;
42168;SDS011;27838;43.858;25.974;2022-09-09T13:19:51;10.80;;;3.92;;
42168;SDS011;27838;43.858;25.974;2022-09-09T13:22:26;21.48;;;4.68;;
42168;SDS011;27838;43.858;25.974;2022-09-09T13:27:34;11.75;;;3.70;;
42168;SDS011;27838;43.858;25.974;2022-09-09T13:38:24;42.10;;;6.30;;
42168;SDS011;27838;43.858;25.974;2022-09-09T13:41:00;11.13;;;4.55;;
42168;SDS011;27838;43.858;25.974;2022-09-09T13:43:37;46.50;;;11.65;;
42168;SDS011;27838;43.858;25.974;2022-09-09T13:51:39;13.27;;;5.70;;
42168;SDS011;27838;43.858;25.974;2022-09-09T13:54:12;34.58;;;11.18;;
42168;SDS011;27838;43.858;25.974;2022-09-09T13:56:40;14.27;;;5.68;;
42168;SDS011;27838;43.858;25.974;2022-09-09T13:59:11;32.53;;;20.90;;
42168;SDS011;27838;43.858;25.974;2022-09-09T14:01:39;25.08;;;15.00;;
42168;SDS011;27838;43.858;25.974;2022-09-09T14:04:06;27.98;;;6.70;;
42168;SDS011;27838;43.858;25.974;2022-09-09T14:06:34;31.27;;;6.72;;
42168;SDS011;27838;43.858;25.974;2022-09-09T14:09:03;93.50;;;9.63;;
42168;SDS011;27838;43.858;25.974;2022-09-09T14:11:31;33.50;;;6.38;;
42168;SDS011;27838;43.858;25.974;2022-09-09T14:13:57;28.33;;;5.43;;
42168;SDS011;27838;43.858;25.974;2022-09-09T14:16:25;15.75;;;6.70;;
42168;SDS011;27838;43.858;25.974;2022-09-09T14:18:52;16.33;;;7.32;;
42168;SDS011;27838;43.858;25.974;2022-09-09T14:21:21;20.50;;;10.40;;
42168;SDS011;27838;43.858;25.974;2022-09-09T14:23:47;14.90;;;5.95;;
42168;SDS011;27838;43.858;25.974;2022-09-09T14:26:14;12.23;;;5.65;;
42168;SDS011;27838;43.858;25.974;2022-09-09T14:28:41;14.57;;;4.72;;
42168;SDS011;27838;43.858;25.974;2022-09-09T14:31:07;33.38;;;21.60;;
42168;SDS011;27838;43.858;25.974;2022-09-09T14:33:35;21.77;;;11.60;;
42168;SDS011;27838;43.858;25.974;2022-09-09T14:36:02;29.27;;;18.55;;
42168;SDS011;27838;43.858;25.974;2022-09-09T14:38:30;38.13;;;21.17;;
42168;SDS011;27838;43.858;25.974;2022-09-09T14:40:59;27.63;;;9.57;;
42168;SDS011;27838;43.858;25.974;2022-09-09T14:43:28;20.23;;;6.78;;
42168;SDS011;27838;43.858;25.974;2022-09-09T14:45:54;21.92;;;7.05;;
42168;SDS011;27838;43.858;25.974;2022-09-09T14:48:21;20.25;;;8.32;;
42168;SDS011;27838;43.858;25.974;2022-09-09T14:50:48;20.13;;;6.65;;
42168;SDS011;27838;43.858;25.974;2022-09-09T14:53:15;55.83;;;8.35;;
42168;SDS011;27838;43.858;25.974;2022-09-09T14:55:42;43.55;;;7.95;;
42168;SDS011;27838;43.858;25.974;2022-09-09T14:58:10;32.22;;;8.30;;
42168;SDS011;27838;43.858;25.974;2022-09-09T15:00:38;37.83;;;6.88;;
42168;SDS011;27838;43.858;25.974;2022-09-09T15:03:06;40.70;;;6.50;;
42168;SDS011;27838;43.858;25.974;2022-09-09T15:05:32;48.30;;;7.63;;
42168;SDS011;27838;43.858;25.974;2022-09-09T15:07:59;37.42;;;8.05;;
42168;SDS011;27838;43.858;25.974;2022-09-09T15:10:25;60.10;;;7.22;;
42168;SDS011;27838;43.858;25.974;2022-09-09T15:12:52;33.17;;;6.32;;
42168;SDS011;27838;43.858;25.974;2022-09-09T15:15:19;43.05;;;8.07;;
42168;SDS011;27838;43.858;25.974;2022-09-09T15:17:46;63.03;;;9.27;;
42168;SDS011;27838;43.858;25.974;2022-09-09T15:20:12;60.60;;;10.07;;
42168;SDS011;27838;43.858;25.974;2022-09-09T15:22:41;49.72;;;8.90;;
42168;SDS011;27838;43.858;25.974;2022-09-09T15:25:08;46.05;;;8.80;;
42168;SDS011;27838;43.858;25.974;2022-09-09T15:27:35;36.72;;;8.55;;
42168;SDS011;27838;43.858;25.974;2022-09-09T15:30:04;38.38;;;8.27;;
42168;SDS011;27838;43.858;25.974;2022-09-09T15:32:30;31.27;;;7.75;;
42168;SDS011;27838;43.858;25.974;2022-09-09T15:34:57;27.30;;;9.75;;
42168;SDS011;27838;43.858;25.974;2022-09-09T15:37:24;27.17;;;7.25;;
42168;SDS011;27838;43.858;25.974;2022-09-09T15:39:50;21.38;;;8.00;;
42168;SDS011;27838;43.858;25.974;2022-09-09T15:42:17;24.00;;;7.95;;
42168;SDS011;27838;43.858;25.974;2022-09-09T15:44:44;24.65;;;8.65;;
42168;SDS011;27838;43.858;25.974;2022-09-09T15:47:11;33.15;;;8.07;;
42168;SDS011;27838;43.858;25.974;2022-09-09T15:49:39;38.90;;;9.05;;
42168;SDS011;27838;43.858;25.974;2022-09-09T15:52:05;58.50;;;9.93;;
42168;SDS011;27838;43.858;25.974;2022-09-09T15:54:33;33.20;;;7.88;;
42168;SDS011;27838;43.858;25.974;2022-09-09T15:57:02;32.80;;;7.20;;
42168;SDS011;27838;43.858;25.974;2022-09-09T15:59:30;37.08;;;8.00;;
42168;SDS011;27838;43.858;25.974;2022-09-09T16:01:58;81.63;;;10.25;;
42168;SDS011;27838;43.858;25.974;2022-09-09T16:04:26;64.40;;;9.27;;
42168;SDS011;27838;43.858;25.974;2022-09-09T16:06:58;22.33;;;7.07;;
42168;SDS011;27838;43.858;25.974;2022-09-09T16:09:27;34.13;;;7.35;;
42168;SDS011;27838;43.858;25.974;2022-09-09T16:11:57;31.48;;;7.95;;
42168;SDS011;27838;43.858;25.974;2022-09-09T16:14:25;58.40;;;10.48;;
42168;SDS011;27838;43.858;25.974;2022-09-09T16:16:53;53.70;;;13.15;;
42168;SDS011;27838;43.858;25.974;2022-09-09T16:19:20;51.22;;;9.50;;
42168;SDS011;27838;43.858;25.974;2022-09-09T16:21:48;53.25;;;9.27;;
42168;SDS011;27838;43.858;25.974;2022-09-09T16:24:17;53.25;;;9.65;;
42168;SDS011;27838;43.858;25.974;2022-09-09T16:26:46;19.50;;;7.10;;
42168;SDS011;27838;43.858;25.974;2022-09-09T16:29:15;33.72;;;8.07;;
42168;SDS011;27838;43.858;25.974;2022-09-09T16:31:43;20.58;;;6.95;;
42168;SDS011;27838;43.858;25.974;2022-09-09T16:34:10;27.67;;;6.63;;
42168;SDS011;27838;43.858;25.974;2022-09-09T16:36:38;23.33;;;6.82;;
42168;SDS011;27838;43.858;25.974;2022-09-09T16:39:09;21.90;;;6.43;;
42168;SDS011;27838;43.858;25.974;2022-09-09T16:41:37;24.40;;;6.18;;
42168;SDS011;27838;43.858;25.974;2022-09-09T16:44:06;29.58;;;6.40;;
42168;SDS011;27838;43.858;25.974;2022-09-09T16:46:35;27.73;;;6.35;;
42168;SDS011;27838;43.858;25.974;2022-09-09T16:49:05;23.30;;;6.40;;
42168;SDS011;27838;43.858;25.974;2022-09-09T16:51:34;73.53;;;8.30;;
42168;SDS011;27838;43.858;25.974;2022-09-09T16:54:10;37.28;;;7.07;;
42168;SDS011;27838;43.858;25.974;2022-09-09T16:56:39;19.23;;;5.78;;
42168;SDS011;27838;43.858;25.974;2022-09-09T16:59:08;19.05;;;6.63;;
42168;SDS011;27838;43.858;25.974;2022-09-09T17:01:38;29.35;;;6.38;;
42168;SDS011;27838;43.858;25.974;2022-09-09T17:04:07;17.40;;;5.93;;
42168;SDS011;27838;43.858;25.974;2022-09-09T17:06:36;17.77;;;5.72;;
42168;SDS011;27838;43.858;25.974;2022-09-09T17:09:05;15.38;;;5.50;;
42168;SDS011;27838;43.858;25.974;2022-09-09T17:11:33;52.97;;;7.20;;
42168;SDS011;27838;43.858;25.974;2022-09-09T17:14:01;25.25;;;6.55;;
42168;SDS011;27838;43.858;25.974;2022-09-09T17:16:29;25.65;;;6.43;;
42168;SDS011;27838;43.858;25.974;2022-09-09T17:18:58;91.68;;;10.38;;